Nina — ICMG — position and weather

sailwx.info

Track history (hours):
 
Tides and Currents Weather Stations Pressure Air Temp Water Temp Dewpoint Dewpoint Depression Visibility Wind Speed Wind Dir Waves Ship Positions

Nina

Last reported at 2017-Nov-24 17:55 UTC. Time now 2017-Nov-25 05:59 UTC.
Position N 36°33' W 001°39'.

Length 180 m; draft 10.6 m.

Type: Tanker. MMSI: 247239700.

Date/timePositionNaut miles runAvg speedWind from/ knotsBaromVisibWave heightAir tempDewpointWater temp
2017-Nov-24 17:55N 36°33' W 001°39'511.4
2017-Nov-24 17:30N 36°34' W 001°33'611.7
2017-Nov-24 17:00N 36°35' W 001°26'612.4
2017-Nov-24 16:30N 36°36' W 001°18'2512.6
2017-Nov-24 14:32N 36°41' W 000°48'012.9
2017-Nov-24 14:30N 36°42' W 000°48'612.8
2017-Nov-24 14:00N 36°43' W 000°40'812.7
2017-Nov-24 13:24N 36°44' W 000°30'512.6
2017-Nov-24 13:00N 36°45' W 000°24'612.4
2017-Nov-24 12:30N 36°47' W 000°16'612.0
2017-Nov-24 12:00N 36°48' W 000°09'611.9
2017-Nov-24 11:29N 36°49' W 000°02'612.3
2017-Nov-24 11:00N 36°50' E 000°05'1012.5
2017-Nov-24 10:12N 36°52' E 000°18'312.5
2017-Nov-24 09:59N 36°53' E 000°21'812.4
2017-Nov-24 09:22N 36°54' E 000°30'512.2
2017-Nov-24 09:00N 36°55' E 000°36'612.2
2017-Nov-24 08:30N 36°57' E 000°43'612.2
2017-Nov-24 08:00N 36°58' E 000°51'612.3
2017-Nov-24 07:29N 36°59' E 000°59'612.3
2017-Nov-24 07:00N 37°00' E 001°06'612.3
2017-Nov-24 06:30N 37°02' E 001°13'612.2
2017-Nov-24 06:00N 37°03' E 001°21'611.9
2017-Nov-24 05:30N 37°04' E 001°28'611.9
2017-Nov-24 04:59N 37°05' E 001°36'612.1
2017-Nov-24 04:30N 37°07' E 001°43'612.5
2017-Nov-24 04:00N 37°08' E 001°51'612.4
2017-Nov-24 03:30N 37°09' E 001°58'612.6
2017-Nov-24 03:00N 37°11' E 002°06'612.6
2017-Nov-24 02:29N 37°12' E 002°14'612.7
2017-Nov-24 01:59N 37°13' E 002°22'912.8
2017-Nov-24 01:19N 37°15' E 002°32'412.5
2017-Nov-24 01:00N 37°16' E 002°37'612.2
2017-Nov-24 00:30N 37°17' E 002°45'612.3
2017-Nov-24 00:00N 37°17' E 002°52'612.4
2017-Nov-23 23:30N 37°17' E 003°00'6112.4
2017-Nov-23 18:35N 37°22' E 004°17'  
2017-Nov-18 05:29N 31°52' E 031°48'713.1
2017-Nov-18 04:59N 31°48' E 031°54'3112.2
2017-Nov-18 02:25N 31°24' E 032°17'2 0.2
2017-Nov-17 17:46N 31°22' E 032°17'0 0.2
2017-Nov-17 17:30N 31°22' E 032°17'0 0.7
2017-Nov-17 17:00N 31°22' E 032°18'2 4.5
2017-Nov-17 16:31N 31°23' E 032°20'3 6.0
2017-Nov-17 16:01N 31°22' E 032°23'5 9.3
2017-Nov-17 15:31N 31°17' E 032°22'56 8.7
2017-Nov-17 09:07N 30°21' E 032°23'4 7.6
2017-Nov-17 08:39N 30°18' E 032°25'1 6.4
2017-Nov-17 08:29N 30°18' E 032°26'13 7.6
2017-Nov-17 06:46N 30°07' E 032°34'  
Track history (hours):
 
Tides and Currents Weather Stations Pressure Air Temp Water Temp Dewpoint Dewpoint Depression Visibility Wind Speed Wind Dir Waves Ship Positions

Nina

Last reported at 2017-Nov-24 17:55 UTC. Time now 2017-Nov-25 05:59 UTC.
Position N 36°33' W 001°39'.

Length 180 m; draft 10.6 m.

Type: Tanker. MMSI: 247239700.

Date/timePositionNaut miles runAvg speedWind from/ knotsBaromVisibWave heightAir tempDewpointWater temp
2017-Nov-24 17:55N 36°33' W 001°39'511.4
2017-Nov-24 17:30N 36°34' W 001°33'611.7
2017-Nov-24 17:00N 36°35' W 001°26'612.4
2017-Nov-24 16:30N 36°36' W 001°18'2512.6
2017-Nov-24 14:32N 36°41' W 000°48'012.9
2017-Nov-24 14:30N 36°42' W 000°48'612.8
2017-Nov-24 14:00N 36°43' W 000°40'812.7
2017-Nov-24 13:24N 36°44' W 000°30'512.6
2017-Nov-24 13:00N 36°45' W 000°24'612.4
2017-Nov-24 12:30N 36°47' W 000°16'612.0
2017-Nov-24 12:00N 36°48' W 000°09'611.9
2017-Nov-24 11:29N 36°49' W 000°02'612.3
2017-Nov-24 11:00N 36°50' E 000°05'1012.5
2017-Nov-24 10:12N 36°52' E 000°18'312.5
2017-Nov-24 09:59N 36°53' E 000°21'812.4
2017-Nov-24 09:22N 36°54' E 000°30'512.2
2017-Nov-24 09:00N 36°55' E 000°36'612.2
2017-Nov-24 08:30N 36°57' E 000°43'612.2
2017-Nov-24 08:00N 36°58' E 000°51'612.3
2017-Nov-24 07:29N 36°59' E 000°59'612.3
2017-Nov-24 07:00N 37°00' E 001°06'612.3
2017-Nov-24 06:30N 37°02' E 001°13'612.2
2017-Nov-24 06:00N 37°03' E 001°21'611.9
2017-Nov-24 05:30N 37°04' E 001°28'611.9
2017-Nov-24 04:59N 37°05' E 001°36'612.1
2017-Nov-24 04:30N 37°07' E 001°43'612.5
2017-Nov-24 04:00N 37°08' E 001°51'612.4
2017-Nov-24 03:30N 37°09' E 001°58'612.6
2017-Nov-24 03:00N 37°11' E 002°06'612.6
2017-Nov-24 02:29N 37°12' E 002°14'612.7
2017-Nov-24 01:59N 37°13' E 002°22'912.8
2017-Nov-24 01:19N 37°15' E 002°32'412.5
2017-Nov-24 01:00N 37°16' E 002°37'612.2
2017-Nov-24 00:30N 37°17' E 002°45'612.3
2017-Nov-24 00:00N 37°17' E 002°52'612.4
2017-Nov-23 23:30N 37°17' E 003°00'6112.4
2017-Nov-23 18:35N 37°22' E 004°17'  
2017-Nov-18 05:29N 31°52' E 031°48'713.1
2017-Nov-18 04:59N 31°48' E 031°54'3112.2
2017-Nov-18 02:25N 31°24' E 032°17'2 0.2
2017-Nov-17 17:46N 31°22' E 032°17'0 0.2
2017-Nov-17 17:30N 31°22' E 032°17'0 0.7
2017-Nov-17 17:00N 31°22' E 032°18'2 4.5
2017-Nov-17 16:31N 31°23' E 032°20'3 6.0
2017-Nov-17 16:01N 31°22' E 032°23'5 9.3
2017-Nov-17 15:31N 31°17' E 032°22'56 8.7
2017-Nov-17 09:07N 30°21' E 032°23'4 7.6
2017-Nov-17 08:39N 30°18' E 032°25'1 6.4
2017-Nov-17 08:29N 30°18' E 032°26'13 7.6
2017-Nov-17 06:46N 30°07' E 032°34'  

Dump ship's entire track history